Time;durP1;ratioP1;P1;durP2;ratioP2;P2;SDS_P1;SDS_P2;PMS_P1;PMS_P2;Temp;Humidity;BMP_temperature;BMP_pressure;BME280_temperature;BME280_humidity;BME280_pressure;Samples;Min_cycle;Max_cycle;Signal;HPM_P1;HPM_P2
2021/12/19 00:04:20;;;;;;;1.60;0.52;;;7.90;99.90;;;;;;5116309;28;20070;-71
2021/12/19 00:09:29;;;;;;;;;;;7.90;99.90;;;;;;5116313;28;20368;-71
2021/12/19 00:11:56;;;;;;;2.13;0.70;;;7.80;99.90;;;;;;5116094;28;19933;-70
2021/12/19 00:14:23;;;;;;;2.30;0.70;;;7.80;99.90;;;;;;5097896;28;20138;-70
2021/12/19 00:16:54;;;;;;;2.50;0.70;;;7.90;99.90;;;;;;5116068;28;20054;-70
2021/12/19 00:19:20;;;;;;;3.53;1.10;;;7.90;99.90;;;;;;5097864;28;20055;-70
2021/12/19 00:21:46;;;;;;;3.22;0.80;;;7.80;99.90;;;;;;5115815;28;20040;-71
2021/12/19 00:24:12;;;;;;;3.75;0.90;;;7.80;99.90;;;;;;5115849;28;20043;-70
2021/12/19 00:26:39;;;;;;;2.97;0.80;;;7.90;99.90;;;;;;5097676;28;20055;-71
2021/12/19 00:29:05;;;;;;;5.18;1.30;;;7.80;99.90;;;;;;5115726;28;20051;-71
2021/12/19 00:31:31;;;;;;;4.47;1.40;;;7.90;99.90;;;;;;5115885;28;20055;-71
2021/12/19 00:33:58;;;;;;;3.35;1.50;;;8.10;99.90;;;;;;5115700;28;20044;-71
2021/12/19 00:36:24;;;;;;;3.63;1.35;;;7.90;99.90;;;;;;5097927;28;20051;-70
2021/12/19 00:38:50;;;;;;;4.03;1.50;;;8.60;99.90;;;;;;5097320;28;20046;-70
2021/12/19 00:41:17;;;;;;;6.88;2.20;;;8.10;99.90;;;;;;5116305;28;20169;-70
2021/12/19 00:43:53;;;;;;;4.53;1.88;;;7.90;99.90;;;;;;5115489;28;20043;-71
2021/12/19 00:46:19;;;;;;;5.93;2.22;;;7.90;99.90;;;;;;5115062;28;20043;-70
2021/12/19 00:48:47;;;;;;;7.78;2.95;;;7.90;99.90;;;;;;5116205;28;20045;-70
2021/12/19 00:51:16;;;;;;;5.35;2.83;;;7.90;99.90;;;;;;5115327;28;20039;-70
2021/12/19 00:53:44;;;;;;;8.65;3.80;;;7.90;99.90;;;;;;5115038;28;20472;-71
2021/12/19 00:56:10;;;;;;;7.45;4.18;;;8.10;99.90;;;;;;5115796;28;20047;-71
2021/12/19 00:58:36;;;;;;;8.98;4.70;;;7.90;99.90;;;;;;5097078;28;20047;-70
2021/12/19 01:01:04;;;;;;;11.18;5.18;;;8.00;99.90;;;;;;5115035;28;20146;-69
2021/12/19 01:03:30;;;;;;;11.02;5.05;;;8.00;99.90;;;;;;5115090;28;20047;-70
2021/12/19 01:05:56;;;;;;;10.38;4.35;;;8.00;99.90;;;;;;5115619;28;20134;-70
2021/12/19 01:08:21;;;;;;;8.95;4.07;;;8.00;99.90;;;;;;5115049;28;20048;-70
2021/12/19 01:10:48;;;;;;;9.15;5.35;;;8.60;99.90;;;;;;5114951;28;20044;-70
2021/12/19 01:13:15;;;;;;;10.00;4.20;;;8.10;99.90;;;;;;5114954;28;20097;-69
2021/12/19 01:15:41;;;;;;;8.70;4.68;;;8.00;99.90;;;;;;5096668;28;20047;-70
2021/12/19 01:18:08;;;;;;;9.30;4.03;;;8.00;99.90;;;;;;5114928;28;20059;-70
2021/12/19 01:20:36;;;;;;;10.88;3.95;;;8.10;99.90;;;;;;5114780;28;20059;-70
2021/12/19 01:23:05;;;;;;;6.47;2.90;;;8.10;99.90;;;;;;5096506;28;20122;-68
2021/12/19 01:25:31;;;;;;;5.13;2.50;;;8.10;99.90;;;;;;5114769;28;20117;-70
2021/12/19 01:27:58;;;;;;;6.05;2.22;;;8.00;99.90;;;;;;5096530;28;20055;-69
2021/12/19 01:30:24;;;;;;;5.75;2.00;;;7.90;99.90;;;;;;5114882;28;20065;-69
2021/12/19 01:32:50;;;;;;;6.95;2.00;;;7.90;99.90;;;;;;5115052;28;20074;-69
2021/12/19 01:35:17;;;;;;;4.82;1.70;;;7.90;99.90;;;;;;5080041;28;20048;-69
2021/12/19 01:37:44;;;;;;;5.38;1.17;;;7.90;99.90;;;;;;5114504;28;20048;-68
2021/12/19 01:40:12;;;;;;;1.95;0.80;;;7.90;99.90;;;;;;5114459;28;20035;-70
2021/12/19 01:42:41;;;;;;;2.33;0.70;;;7.90;99.90;;;;;;5114358;28;20047;-69
2021/12/19 01:45:11;;;;;;;2.05;0.70;;;7.80;99.90;;;;;;5114369;28;20525;-69
2021/12/19 01:47:37;;;;;;;1.95;0.68;;;7.80;99.90;;;;;;5096453;28;20138;-68
2021/12/19 01:50:05;;;;;;;1.75;0.30;;;8.00;99.90;;;;;;5079331;28;20127;-68
2021/12/19 01:52:31;;;;;;;1.42;0.40;;;7.80;99.90;;;;;;5079764;28;20047;-69
2021/12/19 01:54:57;;;;;;;1.60;0.38;;;7.80;99.90;;;;;;5080247;28;20341;-69
2021/12/19 01:57:25;;;;;;;1.58;0.30;;;7.70;99.90;;;;;;5114234;28;20058;-68
2021/12/19 01:59:52;;;;;;;1.30;0.38;;;7.80;99.90;;;;;;5113415;28;20043;-69
2021/12/19 02:02:18;;;;;;;2.17;0.90;;;7.70;99.90;;;;;;5114035;28;20062;-69
2021/12/19 02:04:44;;;;;;;1.40;0.20;;;7.70;99.90;;;;;;5095949;28;20043;-68
2021/12/19 02:07:11;;;;;;;1.00;0.20;;;7.60;99.90;;;;;;5096291;28;20101;-69
2021/12/19 02:09:38;;;;;;;1.98;0.30;;;7.80;99.90;;;;;;5114059;28;20130;-68
2021/12/19 02:12:04;;;;;;;0.60;0.20;;;7.60;99.90;;;;;;5114053;28;20051;-69
2021/12/19 02:14:30;;;;;;;2.90;0.45;;;7.50;99.90;;;;;;5113984;28;20130;-71
2021/12/19 02:16:56;;;;;;;1.88;0.30;;;7.70;99.90;;;;;;5114087;28;20135;-70
2021/12/19 02:19:25;;;;;;;1.00;0.15;;;7.70;99.90;;;;;;5114377;28;20059;-69
2021/12/19 02:21:52;;;;;;;2.15;0.20;;;7.40;99.90;;;;;;5113912;28;20387;-70
2021/12/19 02:24:18;;;;;;;0.20;0.10;;;7.50;99.90;;;;;;5114217;28;20131;-69
2021/12/19 02:26:44;;;;;;;0.95;0.20;;;7.60;99.90;;;;;;5095991;28;20047;-69
2021/12/19 02:29:11;;;;;;;1.02;0.10;;;7.40;99.90;;;;;;5113928;28;20109;-69
2021/12/19 02:31:38;;;;;;;0.47;0.10;;;7.60;99.90;;;;;;5114370;28;20126;-70
2021/12/19 02:34:14;;;;;;;0.47;0.20;;;7.30;99.90;;;;;;5079391;28;20387;-68
2021/12/19 02:50:35;;;;;;;1.85;0.20;;;7.30;99.90;;;;;;5114359;28;20142;-68
2021/12/19 02:53:01;;;;;;;1.33;0.17;;;7.30;99.90;;;;;;5095492;28;20546;-69
2021/12/19 02:55:26;;;;;;;0.80;0.30;;;7.50;99.90;;;;;;5079568;28;20100;-68
2021/12/19 02:57:55;;;;;;;1.05;0.40;;;7.20;99.90;;;;;;5095711;28;20070;-68
2021/12/19 03:00:24;;;;;;;3.60;0.80;;;7.40;99.90;;;;;;5113598;28;20089;-68
2021/12/19 03:02:51;;;;;;;3.05;0.68;;;7.40;99.90;;;;;;5113994;28;20122;-69
2021/12/19 03:05:17;;;;;;;3.70;0.77;;;7.30;99.90;;;;;;5113289;28;20564;-69
2021/12/19 03:07:44;;;;;;;2.50;0.70;;;7.20;99.90;;;;;;5113594;28;20154;-70
2021/12/19 03:10:41;;;;;;;1.60;0.60;;;7.30;99.90;;;;;;5114996;28;20067;-69
2021/12/19 03:18:29;;;;;;;1.25;0.40;;;7.20;99.90;;;;;;5117484;28;20090;-69
2021/12/19 03:20:56;;;;;;;0.68;0.43;;;7.30;99.90;;;;;;5117905;28;20040;-69
2021/12/19 03:23:22;;;;;;;3.92;0.50;;;7.30;99.90;;;;;;5099143;28;20108;-69
2021/12/19 03:25:48;;;;;;;1.17;0.30;;;7.30;99.90;;;;;;5099055;28;20051;-69
2021/12/19 03:28:15;;;;;;;1.27;0.40;;;7.40;99.90;;;;;;5117071;28;20475;-69
2021/12/19 03:30:44;;;;;;;2.08;0.60;;;7.60;99.90;;;;;;5116975;28;20051;-69
2021/12/19 03:33:11;;;;;;;2.55;0.50;;;7.20;99.90;;;;;;5116830;28;20396;-68
2021/12/19 03:35:38;;;;;;;3.05;0.70;;;7.20;99.90;;;;;;5116890;28;20452;-68
2021/12/19 03:38:07;;;;;;;4.20;0.85;;;7.20;99.90;;;;;;5116530;28;20499;-69
2021/12/19 03:40:36;;;;;;;4.53;0.90;;;7.50;99.90;;;;;;5117042;28;20043;-69
2021/12/19 03:43:28;;;;;;;2.47;1.00;;;7.20;99.90;;;;;;5116661;28;20048;-69
2021/12/19 03:45:54;;;;;;;3.22;1.05;;;7.30;99.90;;;;;;5094964;28;20055;-69
2021/12/19 03:48:20;;;;;;;6.38;1.23;;;7.30;99.90;;;;;;5098486;28;20104;-69
2021/12/19 03:50:48;;;;;;;2.45;1.00;;;7.20;99.90;;;;;;5099323;28;20040;-69
2021/12/19 03:53:17;;;;;;;4.53;1.27;;;7.30;99.90;;;;;;5098341;28;20036;-70
2021/12/19 03:55:43;;;;;;;6.38;0.98;;;7.20;99.90;;;;;;5117028;28;20425;-69
2021/12/19 03:58:09;;;;;;;3.25;0.80;;;7.20;99.90;;;;;;5098808;28;20101;-71
2021/12/19 04:00:35;;;;;;;2.00;1.05;;;7.70;99.90;;;;;;5116406;28;20180;-69
2021/12/19 04:03:06;;;;;;;2.72;0.88;;;7.30;99.90;;;;;;5116151;28;20043;-69
2021/12/19 04:05:33;;;;;;;3.60;0.80;;;7.90;99.90;;;;;;5116443;28;20126;-69
2021/12/19 04:07:59;;;;;;;4.05;0.80;;;7.40;99.90;;;;;;5116207;28;20043;-69
2021/12/19 04:10:27;;;;;;;4.47;0.70;;;7.40;99.90;;;;;;5098479;28;20082;-69
2021/12/19 04:12:54;;;;;;;1.63;0.80;;;7.30;99.90;;;;;;5098954;28;20051;-69
2021/12/19 04:15:20;;;;;;;4.03;0.90;;;7.40;99.90;;;;;;5116085;28;20126;-68
2021/12/19 04:17:46;;;;;;;3.42;1.10;;;7.20;99.90;;;;;;5115627;28;20071;-69
2021/12/19 04:20:15;;;;;;;8.00;1.20;;;7.30;99.90;;;;;;5115976;28;20052;-69
2021/12/19 04:22:42;;;;;;;6.00;1.20;;;7.40;99.90;;;;;;5115025;28;20122;-69
2021/12/19 04:25:08;;;;;;;4.47;1.10;;;7.40;99.90;;;;;;5115835;28;20483;-69
2021/12/19 04:27:34;;;;;;;4.18;1.50;;;7.40;99.90;;;;;;5097689;28;20047;-69
2021/12/19 04:30:00;;;;;;;5.55;1.30;;;7.40;99.90;;;;;;5115789;28;20051;-71
2021/12/19 04:32:31;;;;;;;6.32;1.73;;;7.40;99.90;;;;;;5116197;28;20418;-69
2021/12/19 04:34:57;;;;;;;7.63;1.88;;;7.50;99.90;;;;;;5098578;28;20058;-69
2021/12/19 04:40:21;;;;;;;8.98;2.22;;;7.50;99.90;;;;;;5115876;28;20505;-68
2021/12/19 04:53:48;;;;;;;10.50;2.55;;;7.60;99.90;;;;;;5116032;28;20039;-70
2021/12/19 05:02:00;;;;;;;7.55;2.47;;;7.50;99.90;;;;;;5083653;28;20138;-69
2021/12/19 05:15:14;;;;;;;12.05;2.65;;;7.60;99.90;;;;;;5115061;28;20052;-69
2021/12/19 05:17:40;;;;;;;14.15;3.35;;;7.60;99.90;;;;;;5115081;28;20150;-69
2021/12/19 05:20:15;;;;;;;9.82;3.47;;;7.60;99.90;;;;;;5114807;28;20047;-69
2021/12/19 05:22:47;;;;;;;11.52;3.42;;;7.60;99.90;;;;;;5114788;28;20040;-69
2021/12/19 05:25:14;;;;;;;15.82;3.35;;;7.80;99.90;;;;;;5114880;28;20052;-69
2021/12/19 05:27:45;;;;;;;14.32;3.55;;;7.60;99.90;;;;;;5096772;28;20051;-69
2021/12/19 05:30:12;;;;;;;10.13;3.92;;;7.70;99.90;;;;;;5096793;28;20421;-69
2021/12/19 05:32:43;;;;;;;11.60;3.85;;;7.70;99.90;;;;;;5096332;28;20039;-68
2021/12/19 05:35:11;;;;;;;10.60;4.20;;;7.80;99.90;;;;;;5114609;28;20055;-68
2021/12/19 05:45:50;;;;;;;12.60;4.45;;;7.60;99.90;;;;;;5114410;28;20069;-69
2021/12/19 05:48:16;;;;;;;12.75;4.20;;;7.70;99.90;;;;;;5114298;28;20047;-69
2021/12/19 05:50:42;;;;;;;10.35;3.72;;;7.60;99.90;;;;;;5114276;28;20139;-69
2021/12/19 05:53:10;;;;;;;11.43;4.10;;;7.60;99.90;;;;;;5096388;28;20429;-69
2021/12/19 05:55:36;;;;;;;10.52;3.35;;;7.80;99.90;;;;;;5114260;28;20044;-69
2021/12/19 05:58:02;;;;;;;10.25;3.75;;;7.60;99.90;;;;;;5114724;28;20052;-69
2021/12/19 06:00:28;;;;;;;12.20;3.85;;;7.60;99.90;;;;;;5095635;28;20058;-69
2021/12/19 06:02:54;;;;;;;15.30;4.70;;;7.60;99.90;;;;;;5113968;28;20118;-69
2021/12/19 06:05:19;;;;;;;12.43;4.32;;;7.70;99.90;;;;;;5113831;28;20406;-69
2021/12/19 06:07:45;;;;;;;11.05;4.60;;;7.60;99.90;;;;;;5096102;28;20055;-69
2021/12/19 06:10:11;;;;;;;10.82;4.13;;;7.50;99.90;;;;;;5114307;28;20042;-69
2021/12/19 06:12:38;;;;;;;12.38;4.88;;;7.60;99.90;;;;;;5095937;28;20051;-70
2021/12/19 06:15:05;;;;;;;10.88;3.90;;;7.70;99.90;;;;;;5114088;28;20053;-69
2021/12/19 06:17:31;;;;;;;11.38;4.22;;;7.60;99.90;;;;;;5113461;28;20496;-70
2021/12/19 06:19:57;;;;;;;14.45;4.28;;;7.50;99.90;;;;;;5113984;28;20100;-70
2021/12/19 06:22:22;;;;;;;13.93;4.07;;;7.60;99.90;;;;;;5113854;28;20047;-70
2021/12/19 06:24:48;;;;;;;14.52;3.92;;;7.50;99.90;;;;;;5114510;28;20446;-70
2021/12/19 06:27:14;;;;;;;14.15;3.72;;;8.00;99.90;;;;;;5113919;28;20047;-70
2021/12/19 06:29:39;;;;;;;15.10;4.07;;;7.60;99.90;;;;;;5096092;28;20036;-70
2021/12/19 06:32:05;;;;;;;11.38;3.50;;;7.50;99.90;;;;;;5114451;28;20035;-70
2021/12/19 06:34:31;;;;;;;12.15;2.67;;;7.50;99.90;;;;;;5114491;28;20387;-70
2021/12/19 06:36:57;;;;;;;10.25;3.10;;;7.50;99.90;;;;;;5096661;28;20367;-70
2021/12/19 06:39:23;;;;;;;7.53;2.00;;;7.80;99.90;;;;;;5113931;28;20508;-70
2021/12/19 06:41:49;;;;;;;6.88;1.45;;;7.50;99.90;;;;;;5113877;28;20050;-70
2021/12/19 06:44:15;;;;;;;7.15;1.60;;;7.60;99.90;;;;;;5079134;28;20043;-69
2021/12/19 06:46:41;;;;;;;7.10;1.20;;;8.10;99.90;;;;;;5118483;28;20092;-69
2021/12/19 06:49:07;;;;;;;9.80;1.52;;;7.50;99.90;;;;;;5099750;28;20047;-70
2021/12/19 06:51:34;;;;;;;7.50;1.10;;;7.40;99.90;;;;;;5099926;28;20043;-69
2021/12/19 06:54:00;;;;;;;6.32;1.20;;;7.50;99.90;;;;;;5118149;28;20489;-69
2021/12/19 06:56:26;;;;;;;7.50;1.30;;;7.50;99.90;;;;;;5099781;28;20127;-69
2021/12/19 06:58:52;;;;;;;6.20;1.20;;;7.50;99.90;;;;;;5117714;28;20052;-69
2021/12/19 07:01:18;;;;;;;3.78;1.02;;;7.60;99.90;;;;;;5117880;28;20047;-69
2021/12/19 07:03:44;;;;;;;7.25;1.10;;;7.70;99.90;;;;;;5117616;28;20044;-70
2021/12/19 07:06:10;;;;;;;7.35;1.35;;;7.40;99.90;;;;;;5117921;28;20050;-70
2021/12/19 07:08:36;;;;;;;8.15;1.10;;;7.30;99.90;;;;;;5117514;28;20051;-70
2021/12/19 07:11:02;;;;;;;3.85;0.88;;;7.40;99.90;;;;;;5117854;28;20107;-70
2021/12/19 07:13:28;;;;;;;5.72;1.10;;;8.50;99.90;;;;;;5117413;28;20052;-69
2021/12/19 07:15:55;;;;;;;6.72;1.20;;;7.50;99.90;;;;;;5099520;28;20479;-69
2021/12/19 07:18:21;;;;;;;6.50;1.00;;;7.60;99.90;;;;;;5078483;28;20060;-69
2021/12/19 07:20:47;;;;;;;5.28;1.10;;;7.90;99.90;;;;;;5096633;28;20504;-70
2021/12/19 07:23:15;;;;;;;4.65;1.25;;;7.70;99.90;;;;;;5097117;28;20434;-70
2021/12/19 07:25:41;;;;;;;6.65;1.63;;;7.40;99.90;;;;;;5096875;28;20040;-70
2021/12/19 07:28:07;;;;;;;4.82;0.95;;;7.50;99.90;;;;;;5095614;28;20048;-69
2021/12/19 07:30:37;;;;;;;7.75;1.58;;;7.50;99.90;;;;;;5096438;28;20475;-69
2021/12/19 07:33:08;;;;;;;5.65;1.10;;;7.50;99.90;;;;;;5096611;28;20040;-70
2021/12/19 07:35:38;;;;;;;8.90;1.48;;;7.40;99.90;;;;;;5096622;28;20141;-70
2021/12/19 07:38:05;;;;;;;6.80;1.17;;;7.80;99.90;;;;;;5096560;28;20044;-70
2021/12/19 07:40:36;;;;;;;5.22;1.40;;;7.50;99.90;;;;;;5096569;28;20071;-70
2021/12/19 07:43:04;;;;;;;7.07;1.40;;;8.00;99.90;;;;;;5096118;28;20052;-69
2021/12/19 07:45:31;;;;;;;6.57;1.60;;;7.40;99.90;;;;;;5096479;28;20044;-69
2021/12/19 07:47:57;;;;;;;5.45;1.40;;;7.40;99.90;;;;;;5078577;28;20047;-70
2021/12/19 07:50:23;;;;;;;4.85;1.30;;;7.40;99.90;;;;;;5096352;28;20047;-70
2021/12/19 07:52:48;;;;;;;5.15;1.38;;;7.50;99.90;;;;;;5096349;28;20097;-70
2021/12/19 07:55:14;;;;;;;8.45;1.23;;;7.50;99.90;;;;;;5095060;28;20155;-69
2021/12/19 07:57:40;;;;;;;5.82;1.42;;;7.60;99.90;;;;;;5095078;28;20048;-69
2021/12/19 08:00:08;;;;;;;9.75;1.50;;;7.70;99.90;;;;;;5096179;28;20052;-70
2021/12/19 08:02:34;;;;;;;5.70;1.55;;;7.50;99.90;;;;;;5095924;28;20097;-70
2021/12/19 08:05:00;;;;;;;4.88;1.35;;;7.50;99.90;;;;;;5096057;28;20497;-69
2021/12/19 08:07:26;;;;;;;8.85;1.55;;;7.70;99.90;;;;;;5095089;28;20052;-69
2021/12/19 08:10:14;;;;;;;7.63;2.53;;;7.50;99.90;;;;;;5094709;28;20104;-70
2021/12/19 08:12:41;;;;;;;6.38;1.45;;;7.60;99.90;;;;;;5096624;28;20452;-70
2021/12/19 08:15:07;;;;;;;4.47;1.27;;;7.60;99.90;;;;;;5095494;28;20048;-70
2021/12/19 08:17:34;;;;;;;8.38;1.30;;;7.50;99.90;;;;;;5095917;28;20520;-69
2021/12/19 08:20:04;;;;;;;5.25;1.30;;;7.90;99.90;;;;;;5095278;28;20380;-70
2021/12/19 08:22:31;;;;;;;5.82;1.33;;;7.50;99.90;;;;;;5094735;28;20044;-70
2021/12/19 08:24:57;;;;;;;8.18;1.30;;;7.50;99.90;;;;;;5078090;28;20058;-70
2021/12/19 08:27:24;;;;;;;8.65;1.50;;;7.60;99.90;;;;;;5095340;28;20047;-70
2021/12/19 08:29:51;;;;;;;10.73;1.75;;;7.50;99.90;;;;;;5094663;28;20044;-70
2021/12/19 08:32:17;;;;;;;10.23;1.77;;;7.50;99.90;;;;;;5094614;28;20402;-70
2021/12/19 08:34:43;;;;;;;6.25;1.63;;;7.50;99.90;;;;;;5095559;28;20102;-70
2021/12/19 08:37:09;;;;;;;9.88;1.38;;;7.50;99.90;;;;;;5094315;28;20111;-70
2021/12/19 08:39:35;;;;;;;9.35;0.95;;;7.50;99.90;;;;;;5094172;28;20130;-70
2021/12/19 08:42:03;;;;;;;6.45;1.10;;;7.60;99.90;;;;;;5094207;28;20044;-70
2021/12/19 08:44:28;;;;;;;7.72;1.30;;;7.50;99.90;;;;;;5094048;28;20075;-70
2021/12/19 08:46:54;;;;;;;7.82;1.35;;;7.50;99.90;;;;;;5094118;28;20083;-70
2021/12/19 08:49:20;;;;;;;4.60;1.10;;;7.60;99.90;;;;;;5094269;28;20052;-71
2021/12/19 08:51:46;;;;;;;7.88;1.27;;;8.50;99.90;;;;;;5095188;28;20085;-70
2021/12/19 08:54:12;;;;;;;9.60;2.80;;;7.60;99.90;;;;;;5077463;28;20105;-70
2021/12/19 08:56:38;;;;;;;3.53;1.15;;;7.70;99.90;;;;;;5094664;28;20044;-70
2021/12/19 08:59:04;;;;;;;10.15;1.38;;;7.70;99.90;;;;;;5095092;28;20052;-70
2021/12/19 09:01:31;;;;;;;5.03;1.00;;;7.60;99.90;;;;;;5095267;28;20044;-70
2021/12/19 09:03:58;;;;;;;10.10;1.45;;;7.50;99.90;;;;;;5094899;28;20048;-70
2021/12/19 09:06:24;;;;;;;9.20;1.50;;;7.80;99.90;;;;;;5094917;28;20055;-70
2021/12/19 09:08:49;;;;;;;7.32;1.30;;;7.60;99.90;;;;;;5093483;28;20392;-70
2021/12/19 09:11:15;;;;;;;7.07;1.33;;;8.00;99.90;;;;;;5094898;28;20048;-70
2021/12/19 09:13:41;;;;;;;11.60;2.08;;;7.60;99.90;;;;;;5093724;28;20044;-70
2021/12/19 09:16:07;;;;;;;10.68;2.00;;;7.60;99.90;;;;;;5094332;28;20173;-70
2021/12/19 09:18:32;;;;;;;11.82;1.58;;;7.60;99.90;;;;;;5093722;28;20048;-70
2021/12/19 09:20:58;;;;;;;9.02;1.75;;;7.70;99.90;;;;;;5077107;28;20048;-70
2021/12/19 09:23:24;;;;;;;6.63;1.20;;;7.60;99.90;;;;;;5093813;28;20396;-73
2021/12/19 09:25:50;;;;;;;8.48;1.40;;;7.70;99.90;;;;;;5094520;28;20044;-76
2021/12/19 09:28:18;;;;;;;8.55;1.60;;;7.70;99.90;;;;;;5076279;28;20090;-76
2021/12/19 09:30:44;;;;;;;6.55;1.33;;;7.70;99.90;;;;;;5093402;28;20376;-73
2021/12/19 09:33:10;;;;;;;7.53;1.08;;;7.70;99.90;;;;;;5094314;28;20119;-74
2021/12/19 09:35:36;;;;;;;8.05;1.20;;;7.90;99.90;;;;;;5076439;28;20098;-75
2021/12/19 09:38:03;;;;;;;6.78;1.30;;;7.80;99.90;;;;;;5093049;28;20055;-74
2021/12/19 09:40:34;;;;;;;9.60;1.58;;;7.90;99.90;;;;;;5093992;28;20483;-75
2021/12/19 09:43:09;;;;;;;14.75;3.63;;;7.70;99.90;;;;;;5093647;28;20094;-75
2021/12/19 09:45:35;;;;;;;17.52;4.18;;;7.70;99.90;;;;;;5094095;28;20419;-75
2021/12/19 09:48:01;;;;;;;15.32;4.60;;;7.70;99.90;;;;;;5094163;28;20076;-74
2021/12/19 09:50:29;;;;;;;10.13;2.20;;;7.80;99.90;;;;;;5093043;28;20502;-72
2021/12/19 09:52:55;;;;;;;8.98;1.60;;;7.70;99.90;;;;;;5093105;28;20480;-73
2021/12/19 09:55:21;;;;;;;6.15;1.48;;;7.70;99.90;;;;;;5092904;28;20100;-74
2021/12/19 09:57:53;;;;;;;10.93;1.38;;;7.80;99.90;;;;;;5077043;28;20055;-74
2021/12/19 10:00:20;;;;;;;9.63;1.20;;;7.70;99.90;;;;;;5092832;28;20086;-73
2021/12/19 10:02:46;;;;;;;7.68;0.98;;;8.10;99.90;;;;;;5093672;28;20079;-76
2021/12/19 10:05:23;;;;;;;6.53;1.08;;;7.80;99.90;;;;;;5092805;28;20470;-76
2021/12/19 10:07:56;;;;;;;11.38;1.48;;;7.70;99.90;;;;;;5093594;28;20048;-74
2021/12/19 10:10:54;;;;;;;5.30;1.10;;;7.80;99.90;;;;;;5076450;28;20130;-74
2021/12/19 10:13:32;;;;;;;5.85;0.80;;;7.80;99.90;;;;;;5093042;28;20388;-74
2021/12/19 10:15:57;;;;;;;7.50;1.08;;;7.80;99.90;;;;;;5093200;28;20048;-74
2021/12/19 10:18:23;;;;;;;5.30;1.02;;;7.80;99.90;;;;;;5091883;28;20449;-75
2021/12/19 10:20:52;;;;;;;8.40;1.45;;;7.90;99.90;;;;;;5092667;28;20488;-74
2021/12/19 10:23:23;;;;;;;7.38;1.25;;;7.80;99.90;;;;;;5092909;28;20041;-74
2021/12/19 10:26:04;;;;;;;6.82;1.10;;;7.90;99.90;;;;;;5092242;28;20098;-74
2021/12/19 10:28:30;;;;;;;8.38;1.55;;;7.90;99.90;;;;;;5092380;28;20055;-73
2021/12/19 10:30:58;;;;;;;7.18;1.00;;;7.80;99.90;;;;;;5092356;28;20138;-72
2021/12/19 10:33:31;;;;;;;5.78;1.48;;;7.80;99.90;;;;;;5075425;28;20044;-74
2021/12/19 10:36:03;;;;;;;6.07;1.15;;;7.90;99.90;;;;;;5093811;28;20047;-75
2021/12/19 10:38:38;;;;;;;5.40;1.15;;;7.90;99.90;;;;;;5092792;28;20055;-75
2021/12/19 10:41:10;;;;;;;7.32;1.05;;;8.00;99.90;;;;;;5092938;28;20060;-75
2021/12/19 10:43:59;;;;;;;4.88;1.00;;;7.90;99.90;;;;;;5092154;28;20119;-74
2021/12/19 10:46:39;;;;;;;11.48;1.75;;;8.00;99.90;;;;;;5093962;28;20040;-74
2021/12/19 10:49:32;;;;;;;13.32;1.35;;;8.00;99.90;;;;;;5093725;28;20052;-74
2021/12/19 10:52:01;;;;;;;4.68;1.13;;;8.00;99.90;;;;;;5092524;28;20174;-76
2021/12/19 10:54:28;;;;;;;6.25;1.55;;;8.00;99.90;;;;;;5092071;28;20050;-76
2021/12/19 10:57:10;;;;;;;10.60;1.55;;;8.00;99.90;;;;;;5092826;28;20059;-78
2021/12/19 10:59:36;;;;;;;7.38;1.40;;;8.00;99.90;;;;;;5092384;28;20054;-75
2021/12/19 11:02:02;;;;;;;9.07;1.20;;;8.10;99.90;;;;;;5092551;28;20047;-75
2021/12/19 11:04:29;;;;;;;7.50;1.20;;;8.00;99.90;;;;;;5091667;28;20123;-79
2021/12/19 11:07:02;;;;;;;11.38;1.35;;;8.00;99.90;;;;;;5092221;28;20048;-76
2021/12/19 11:09:34;;;;;;;9.20;1.33;;;8.10;99.90;;;;;;5093761;28;20126;-76
2021/12/19 11:12:05;;;;;;;8.25;1.38;;;8.10;99.90;;;;;;5092344;28;20040;-76
2021/12/19 11:14:39;;;;;;;7.25;1.20;;;8.10;99.90;;;;;;5075370;28;20170;-78
2021/12/19 11:17:09;;;;;;;;;;;8.10;99.90;;;;;;5092651;28;20044;-78
2021/12/19 11:19:36;;;;;;;9.35;1.23;;;8.10;99.90;;;;;;5091694;28;19919;-75
2021/12/19 11:22:02;;;;;;;9.65;1.20;;;8.10;99.90;;;;;;5091662;28;20056;-75
2021/12/19 11:24:28;;;;;;;10.05;1.60;;;8.10;99.90;;;;;;5092790;28;20082;-78
2021/12/19 11:26:57;;;;;;;9.65;2.20;;;8.10;99.90;;;;;;5092527;28;20055;-77
2021/12/19 11:29:24;;;;;;;11.95;1.33;;;8.10;99.90;;;;;;5091774;28;20040;-75
2021/12/19 11:31:57;;;;;;;7.43;1.30;;;8.20;99.90;;;;;;5095113;28;20040;-77
2021/12/19 11:34:51;;;;;;;11.10;1.70;;;8.10;99.90;;;;;;5079120;28;20052;-75
2021/12/19 11:37:25;;;;;;;8.35;1.13;;;8.20;99.90;;;;;;5096825;28;20105;-75
2021/12/19 11:39:54;;;;;;;10.77;1.20;;;8.20;99.90;;;;;;5095541;28;20050;-74
2021/12/19 11:42:35;;;;;;;11.20;1.63;;;8.20;99.90;;;;;;5096890;28;20063;-75
2021/12/19 11:45:22;;;;;;;12.48;1.70;;;8.20;99.90;;;;;;5095861;28;20449;-77
2021/12/19 11:47:54;;;;;;;11.88;1.77;;;8.20;99.90;;;;;;5095296;28;20047;-76
2021/12/19 11:50:33;;;;;;;10.93;1.70;;;8.20;99.90;;;;;;5095866;28;20059;-78
2021/12/19 11:53:19;;;;;;;9.60;1.80;;;8.20;99.90;;;;;;5094874;28;20047;-74
2021/12/19 11:55:49;;;;;;;12.38;1.85;;;8.20;99.90;;;;;;5095989;28;20052;-74
2021/12/19 11:58:24;;;;;;;10.50;1.83;;;8.20;99.90;;;;;;5096679;28;20149;-76
2021/12/19 12:01:01;;;;;;;14.68;1.85;;;8.30;99.90;;;;;;5095100;28;20399;-74
2021/12/19 12:03:30;;;;;;;12.75;1.70;;;8.20;99.90;;;;;;5094555;28;20110;-76
2021/12/19 12:05:59;;;;;;;12.02;1.95;;;8.30;99.90;;;;;;5095620;28;20127;-75
2021/12/19 12:08:26;;;;;;;8.95;1.38;;;8.30;99.90;;;;;;5095334;28;20105;-75
2021/12/19 12:10:56;;;;;;;12.63;1.95;;;8.20;99.90;;;;;;5095513;28;20066;-76
2021/12/19 12:13:27;;;;;;;14.60;1.63;;;8.60;99.90;;;;;;5095505;28;20052;-76
2021/12/19 12:16:02;;;;;;;12.55;2.78;;;8.40;99.90;;;;;;5095664;28;20395;-77
2021/12/19 12:18:33;;;;;;;10.95;1.88;;;8.30;99.90;;;;;;5094365;28;20052;-78
2021/12/19 12:21:51;;;;;;;13.23;5.47;;;8.20;99.90;;;;;;5095406;28;20091;-76
2021/12/19 12:24:13;;;;;;;13.20;4.70;;;8.30;99.90;;;;;;5091908;28;20056;-76
2021/12/19 12:26:55;;;;;;;13.23;10.77;;;8.30;99.90;;;;;;5095171;28;20039;-76
2021/12/19 12:29:22;;;;;;;11.13;5.15;;;8.30;99.90;;;;;;5095262;28;20488;-76
2021/12/19 12:31:48;;;;;;;25.98;17.70;;;8.40;99.90;;;;;;5095173;28;20364;-76
2021/12/19 12:34:17;;;;;;;33.10;17.30;;;8.40;99.90;;;;;;5093963;28;20056;-75
2021/12/19 12:36:44;;;;;;;19.58;12.27;;;8.00;99.90;;;;;;5095703;28;20474;-78
2021/12/19 12:39:21;;;;;;;8.00;3.03;;;8.30;99.90;;;;;;5095634;28;20047;-75
2021/12/19 12:41:58;;;;;;;8.07;2.50;;;8.20;99.90;;;;;;5093473;28;20044;-74
2021/12/19 12:44:25;;;;;;;6.90;2.85;;;8.30;99.90;;;;;;5076369;28;20133;-75
2021/12/19 12:46:51;;;;;;;7.13;2.92;;;8.30;99.90;;;;;;5094775;28;20040;-76
2021/12/19 12:49:24;;;;;;;16.85;9.52;;;8.20;99.90;;;;;;5094804;28;20047;-78
2021/12/19 12:51:56;;;;;;;11.32;2.42;;;9.60;99.90;;;;;;5093933;28;20043;-78
2021/12/19 12:54:27;;;;;;;16.73;9.68;;;8.40;99.90;;;;;;5093418;28;20135;-78
2021/12/19 12:56:58;;;;;;;6.03;1.45;;;8.20;99.90;;;;;;5077052;28;20048;-77
2021/12/19 12:59:28;;;;;;;7.28;1.98;;;8.20;99.90;;;;;;5093409;28;20131;-79
2021/12/19 13:02:19;;;;;;;6.72;1.92;;;8.90;99.90;;;;;;5094462;28;20526;-76
2021/12/19 13:04:47;;;;;;;7.70;1.20;;;8.30;99.90;;;;;;5093223;28;20048;-78
2021/12/19 13:07:21;;;;;;;7.30;1.33;;;8.30;99.90;;;;;;5077306;28;20165;-77
2021/12/19 13:10:00;;;;;;;12.57;7.55;;;8.20;99.90;;;;;;5093167;28;20048;-77
2021/12/19 13:12:32;;;;;;;10.85;2.38;;;8.20;99.90;;;;;;5095194;28;20371;-78
2021/12/19 13:15:03;;;;;;;7.00;1.10;;;8.50;99.90;;;;;;5094082;28;20415;-77
2021/12/19 13:17:38;;;;;;;7.82;2.00;;;8.20;99.90;;;;;;5094240;28;20044;-78
2021/12/19 13:20:10;;;;;;;6.82;1.20;;;8.20;99.90;;;;;;5092586;28;20086;-76
2021/12/19 13:22:49;;;;;;;16.27;8.25;;;8.20;99.90;;;;;;5093294;28;20149;-75
2021/12/19 13:25:17;;;;;;;13.85;3.90;;;8.20;99.90;;;;;;5093682;28;20487;-75
2021/12/19 13:27:51;;;;;;;17.42;7.53;;;8.20;99.90;;;;;;5093751;28;20539;-73
2021/12/19 13:30:27;;;;;;;7.15;1.00;;;8.20;99.90;;;;;;5094553;28;20047;-74
2021/12/19 13:32:59;;;;;;;9.68;1.20;;;8.30;99.90;;;;;;5094409;28;20118;-75
2021/12/19 13:35:27;;;;;;;6.53;1.20;;;8.30;99.90;;;;;;5093859;28;20040;-75
2021/12/19 13:38:09;;;;;;;9.05;1.60;;;8.20;99.90;;;;;;5092707;28;20087;-75
2021/12/19 13:40:40;;;;;;;10.38;1.17;;;8.30;99.90;;;;;;5093568;28;20496;-75
2021/12/19 13:43:18;;;;;;;8.07;1.30;;;8.30;99.90;;;;;;5093333;28;20377;-75
2021/12/19 13:45:49;;;;;;;8.85;1.52;;;8.40;99.90;;;;;;5093263;28;20048;-74
2021/12/19 13:48:35;;;;;;;8.82;1.48;;;8.30;99.90;;;;;;5093809;28;20048;-74
2021/12/19 13:51:12;;;;;;;7.88;1.42;;;8.40;99.90;;;;;;5077046;28;20044;-78
2021/12/19 13:53:45;;;;;;;8.00;1.42;;;8.40;99.90;;;;;;5093849;28;20054;-81
2021/12/19 13:56:15;;;;;;;7.63;1.33;;;8.50;99.90;;;;;;5092677;28;20089;-79
2021/12/19 13:58:49;;;;;;;12.57;1.83;;;8.50;99.90;;;;;;5092912;28;20051;-79
2021/12/19 14:01:19;;;;;;;9.77;1.20;;;8.40;99.90;;;;;;5093811;28;20148;-77
2021/12/19 14:03:51;;;;;;;12.20;1.70;;;8.50;99.90;;;;;;5093928;28;20050;-83
2021/12/19 14:06:32;;;;;;;7.95;1.48;;;8.50;99.90;;;;;;5093413;28;20364;-81
2021/12/19 14:09:02;;;;;;;37.50;28.27;;;8.40;99.90;;;;;;5094812;28;20071;-80